Latest Coastal Weather Observations for Kingscote

IDS60701

Issued at 6:01 pm CST Saturday 30 May 2015 (issued every 10 minutes, with the page automatically refreshed every 10 minutes)

About coastal observations | Map of coastal stations | Coastal observations for SA | Marine services | Other Formats
Station Details ID: 022841 Name: KINGSCOTE AERO Lat: -35.71 Lon: 137.52 Height: 6.23 m
Data from the previous 72 hours. | See also: Recent months at Kingscote
Date/Time
CST
Temp

°C
Wind Pressure Rain
since 9am
mm
Weather Cloud Vis
km
Sea
Height
m
Swell
Dir
 
Speed
knots
Gust
knots
hPa Trend Height
m
Period
s
Dir
30/06:00pm 10.5 WNW 5 6 1019.6 - 0.0 - - 10 - - - -
30/05:30pm 12.4 WNW 6 9 1019.6 - 0.0 - Partly cloudy 10 - - - -
30/05:00pm 13.4 WNW 7 9 1019.6 - 0.0 - Partly cloudy 10 - - - -
30/04:30pm 14.6 W 8 11 1019.6 - 0.0 - Partly cloudy 10 - - - -
30/04:00pm 15.3 W 12 16 1019.5 - 0.0 - Partly cloudy 10 - - - -
30/03:30pm 16.0 WNW 11 15 1019.1 - 0.0 - Partly cloudy 10 - - - -
30/03:00pm 16.0 W 8 11 1019.3 - 0.0 - Mostly cloudy 10 - - - -
30/02:30pm 16.4 W 11 14 1019.3 - 0.0 - Partly cloudy 10 - - - -
30/02:00pm 16.6 W 12 16 1019.4 - 0.0 - Cloudy 10 - - - -
30/01:30pm 16.8 WSW 11 15 1019.5 - 0.0 - Partly cloudy 10 - - - -
30/01:00pm 17.8 WSW 11 14 1019.7 - 0.0 - Partly cloudy 10 - - - -
30/12:30pm 16.6 WSW 11 14 1020.3 - 0.0 - Partly cloudy 10 - - - -
30/12:00pm 17.0 W 11 15 1020.7 - 0.0 - - 10 - - - -
30/11:30am 16.3 W 11 15 1021.3 - 0.0 - - 10 - - - -
30/11:00am 15.9 W 9 12 1021.8 - 0.0 - Partly cloudy 10 - - - -
30/10:30am 14.9 W 10 16 1022.1 - 0.0 - Partly cloudy 10 - - - -
30/10:00am 14.3 W 8 14 1022.3 - 0.0 - Partly cloudy 10 - - - -
30/09:30am 12.9 CALM 0 0 1022.2 - 0.0 - - 10 - - - -
30/09:00am 9.9 N 3 5 1022.3 - 0.2 - - 10 - - - -
30/08:30am 7.7 CALM 0 0 1022.4 - 0.2 - - 10 - - - -
30/08:00am 4.8 CALM 0 0 1022.2 - 0.2 - Partly cloudy 10 - - - -
30/07:30am 4.6 CALM 0 0 1022.1 - 0.2 - - 10 - - - -
30/07:00am 5.2 CALM 0 0 1022.2 - 0.2 - Partly cloudy 10 - - - -
30/06:30am 3.5 CALM 0 0 1022.0 - 0.2 - Partly cloudy 10 - - - -
30/06:00am 3.3 CALM 0 0 1022.0 - 0.2 - - 10 - - - -
30/05:30am 4.7 CALM 0 0 1021.8 - 0.2 - - 10 - - - -
30/05:00am 4.0 CALM 0 0 1021.9 - 0.2 - Partly cloudy 10 - - - -
30/04:30am 4.1 CALM 0 0 1021.6 - 0.2 - Partly cloudy 10 - - - -
30/04:00am 4.4 CALM 0 0 1021.9 - 0.2 - - 10 - - - -
30/03:30am 5.4 CALM 0 0 1022.1 - 0.2 - - 10 - - - -
30/03:00am 4.8 CALM 0 0 1022.1 - 0.2 - - 10 - - - -
30/02:30am 5.2 CALM 0 0 1022.2 - 0.2 - - 10 - - - -
30/02:00am 5.8 CALM 0 0 1022.3 - 0.2 - Partly cloudy 10 - - - -
30/01:35am 5.9 CALM 0 0 1022.3 - 0.0 - Partly cloudy 10 - - - -
30/01:30am 6.0 CALM 0 0 1022.3 - 0.0 - Partly cloudy 10 - - - -
30/01:13am 6.0 CALM 0 0 1022.5 - 0.0 - Partly cloudy 3 - - - -
30/01:00am 6.1 CALM 0 0 1022.6 - 0.0 - - 10 - - - -
30/12:30am 6.6 CALM 0 0 1022.8 - 0.0 - - 10 - - - -
30/12:00am 7.0 CALM 0 0 1023.1 - 0.0 - Cloudy 10 - - - -
 
Date/Time
CST
Temp

°C
Wind Pressure Rain
since 9am
mm
Weather Cloud Vis
km
Sea
Height
m
Swell
Dir
 
Speed
knots
Gust
knots
hPa Trend Height
m
Period
s
Dir
29/11:30pm 6.6 CALM 0 0 1023.3 - 0.0 - Partly cloudy 10 - - - -
29/11:00pm 7.4 CALM 0 0 1023.8 - 0.0 - Partly cloudy 10 - - - -
29/10:30pm 7.4 CALM 0 0 1023.9 - 0.0 - Partly cloudy 10 - - - -
29/10:00pm 6.7 CALM 0 0 1023.9 - 0.0 - - 10 - - - -
29/09:30pm 6.3 CALM 0 0 1023.8 - 0.0 - - 10 - - - -
29/09:00pm 7.6 CALM 0 0 1024.0 - 0.0 - - 10 - - - -
29/08:30pm 7.7 CALM 0 0 1023.9 - 0.0 - - 10 - - - -
29/08:00pm 7.7 CALM 0 0 1023.7 - 0.0 - Partly cloudy 10 - - - -
29/07:30pm 9.2 CALM 0 0 1023.7 - 0.0 - - 10 - - - -
29/07:00pm 10.0 W 2 4 1023.5 - 0.0 - - 10 - - - -
29/06:30pm 11.2 CALM 0 0 1023.3 - 0.0 - Partly cloudy 10 - - - -
29/06:00pm 12.5 CALM 0 3 1023.2 - 0.0 - Cloudy 10 - - - -
29/05:30pm 13.0 WSW 4 5 1023.2 - 0.0 - Partly cloudy 10 - - - -
29/05:00pm 13.7 W 7 9 1023.0 - 0.0 - Partly cloudy 10 - - - -
29/04:30pm 14.7 W 5 7 1022.9 - 0.0 - Partly cloudy 10 - - - -
29/04:00pm 14.9 WNW 7 9 1022.8 - 0.0 - Partly cloudy 10 - - - -
29/03:30pm 14.7 W 6 9 1022.7 - 0.0 - Partly cloudy 10 - - - -
29/03:00pm 13.7 W 5 6 1022.8 - 0.0 - Partly cloudy 10 - - - -
29/02:30pm 13.8 W 13 18 1022.9 - 0.0 - Partly cloudy 10 - - - -
29/02:00pm 16.0 WNW 9 13 1022.7 - 0.0 - Partly cloudy 10 - - - -
29/01:30pm 14.8 NW 7 9 1022.9 - 0.0 - Partly cloudy 10 - - - -
29/01:00pm 15.5 W 7 15 1022.8 - 0.0 - Partly cloudy 10 - - - -
29/12:30pm 15.6 WSW 6 9 1023.0 - 0.0 - Partly cloudy 10 - - - -
29/12:00pm 14.6 WSW 10 14 1023.4 - 0.0 - Cloudy 10 - - - -
29/11:30am 15.1 WSW 9 11 1023.7 - 0.0 - Partly cloudy 10 - - - -
29/11:00am 14.0 SW 10 13 1023.9 - 0.0 - Partly cloudy 10 - - - -
29/10:30am 14.6 W 9 11 1024.0 - 0.0 - - 10 - - - -
29/10:00am 14.2 W 7 10 1024.0 - 0.0 - - 10 - - - -
29/09:30am 12.8 WSW 8 9 1023.8 - 0.0 - Partly cloudy 10 - - - -
29/09:00am 11.9 WSW 8 11 1023.7 - 2.2 - Cloudy 10 - - - -
29/08:30am 9.9 WSW 5 7 1023.8 - 2.2 - Partly cloudy 10 - - - -
29/08:00am 7.5 CALM 0 0 1023.5 - 2.2 - Partly cloudy 10 - - - -
29/07:30am 5.7 CALM 0 0 1023.5 - 2.2 - Partly cloudy 10 - - - -
29/07:00am 5.9 CALM 0 0 1023.0 - 2.2 - - 10 - - - -
29/06:30am 6.0 SE 1 3 1022.6 - 2.2 - - 10 - - - -
29/06:00am 7.3 W 4 5 1022.5 - 2.2 - - 10 - - - -
29/05:30am 7.7 WNW 5 6 1022.4 - 2.2 - Partly cloudy 10 - - - -
29/05:00am 6.5 WSW 3 7 1022.6 - 2.2 - Partly cloudy 10 - - - -
29/04:30am 5.2 CALM 0 0 1022.1 - 2.2 - - 10 - - - -
29/04:00am 6.1 CALM 0 0 1021.9 - 2.2 - - 10 - - - -
29/03:30am 6.4 W 5 5 1021.7 - 2.0 - - 10 - - - -
29/03:00am 7.7 NW 5 6 1021.5 - 2.0 - - 10 - - - -
29/02:30am 8.5 WNW 5 6 1021.3 - 2.0 - - 10 - - - -
29/02:00am 9.1 WNW 6 7 1021.4 - 2.0 - - 10 - - - -
29/01:30am 9.4 W 7 7 1021.4 - 2.0 - Partly cloudy 10 - - - -
29/01:00am 9.9 W 7 9 1021.5 - 2.0 - Partly cloudy 10 - - - -
29/12:30am 11.1 WNW 10 14 1021.4 - 2.0 - Partly cloudy 10 - - - -
29/12:00am 9.4 WSW 6 7 1021.3 - 2.0 - Partly cloudy 10 - - - -
 
Date/Time
CST
Temp

°C
Wind Pressure Rain
since 9am
mm
Weather Cloud Vis
km
Sea
Height
m
Swell
Dir
 
Speed
knots
Gust
knots
hPa Trend Height
m
Period
s
Dir
28/11:30pm 9.8 WSW 6 7 1021.6 - 2.0 - Partly cloudy 10 - - - -
28/11:00pm 11.1 W 6 7 1021.5 - 2.0 - Partly cloudy 10 - - - -
28/10:30pm 10.6 WNW 6 7 1021.3 - 2.0 - Partly cloudy 10 - - - -
28/10:00pm 11.0 WNW 7 8 1021.2 - 2.0 - Partly cloudy 10 - - - -
28/09:30pm 11.3 WNW 6 7 1020.8 - 2.0 - Cloudy 10 - - - -
28/09:00pm 11.5 W 7 8 1020.6 - 2.0 - Mostly cloudy 10 - - - -
28/08:30pm 11.7 WSW 7 9 1020.5 - 2.0 - Partly cloudy 10 - - - -
28/08:00pm 11.5 W 7 12 1020.2 - 2.0 - Partly cloudy 10 - - - -
28/07:30pm 11.2 WNW 5 6 1019.8 - 2.0 - Cloudy 10 - - - -
28/07:00pm 11.6 WNW 5 6 1019.6 - 2.0 - Partly cloudy 10 - - - -
28/06:30pm 12.1 NW 5 6 1019.2 - 2.0 - Partly cloudy 10 - - - -
28/06:00pm 11.8 W 5 6 1018.8 - 2.0 - Partly cloudy 10 - - - -
28/05:30pm 12.2 WSW 6 7 1018.5 - 2.0 - Partly cloudy 10 - - - -
28/05:00pm 13.4 WSW 9 11 1018.2 - 2.0 - Partly cloudy 10 - - - -
28/04:30pm 13.6 SW 13 18 1017.9 - 2.0 - Partly cloudy 10 - - - -
28/04:15pm 14.9 SW 11 22 1017.6 - 2.0 - Partly cloudy 10 - - - -
28/04:00pm 15.4 WSW 8 11 1017.4 - 2.0 - Partly cloudy 10 - - - -
28/03:30pm 14.3 WSW 12 15 1017.2 - 2.0 - Partly cloudy 10 - - - -
28/03:00pm 14.9 SW 16 24 1017.0 - 2.0 - Mostly cloudy 10 - - - -
28/02:30pm 16.1 WSW 11 16 1016.5 - 2.0 - Partly cloudy 10 - - - -
28/02:13pm 16.3 W 15 25 1016.4 - 2.0 - Partly cloudy 10 - - - -
28/02:00pm 16.3 WSW 13 16 1016.3 - 2.0 - Partly cloudy 10 - - - -
28/01:30pm 16.9 W 13 19 1016.5 - 2.0 - Partly cloudy 10 - - - -
28/01:00pm 16.0 WNW 11 18 1016.6 - 2.0 - Partly cloudy 10 - - - -
28/12:41pm 14.9 W 12 17 1016.8 - 2.0 - Partly cloudy 10 - - - -
28/12:30pm 14.5 WSW 13 19 1016.9 - 2.0 - Partly cloudy 5 - - - -
28/12:25pm 14.5 W 15 19 1016.9 - 2.0 - Partly cloudy 5 - - - -
28/12:00pm 16.8 WNW 17 23 1016.7 - 1.2 - Mostly cloudy 10 - - - -
28/11:30am 16.7 WNW 14 19 1017.0 - 1.2 - Partly cloudy 10 - - - -
28/11:00am 17.5 NW 13 19 1017.2 - 1.2 - Partly cloudy 10 - - - -
28/10:30am 17.2 NW 15 20 1017.3 - 1.2 - Partly cloudy 10 - - - -
28/10:00am 15.9 NW 10 14 1017.4 - 1.2 - - 10 - - - -
28/09:31am 14.2 NW 10 13 1017.5 - 1.2 - Partly cloudy 10 - - - -
28/09:30am 14.2 NW 10 14 1017.5 - 1.2 - Partly cloudy 10 - - - -
28/09:13am 13.7 W 9 12 1017.5 - 0.6 - Partly cloudy 7 - - - -
28/09:00am 14.1 WNW 10 15 1017.4 - 13.8 Recent precip. Cloudy 10 - - - -
28/08:37am 14.2 NW 7 15 1017.3 - 13.8 - Partly cloudy 10 - - - -
28/08:32am 14.1 WNW 6 15 1017.3 - 13.8 - Partly cloudy 9 - - - -
28/08:30am 13.7 WNW 5 7 1017.3 - 13.8 - Partly cloudy 10 - - - -
28/08:24am 13.6 W 6 10 1017.4 - 13.8 - Partly cloudy 6 - - - -
28/08:16am 13.8 WNW 6 10 1017.2 - 13.6 - Partly cloudy 5 - - - -
28/08:00am 13.6 WNW 7 10 1017.1 - 12.2 - Partly cloudy 9 - - - -
28/07:36am 13.5 WNW 11 14 1016.9 - 11.4 - Partly cloudy 7 - - - -
28/07:30am 13.5 W 11 14 1017.0 - 10.8 - Partly cloudy 6 - - - -
28/07:10am 13.4 NW 10 16 1016.8 - 5.4 - Partly cloudy 5 - - - -
28/07:00am 12.8 NNW 7 8 1016.9 - 4.2 - Partly cloudy 10 - - - -
28/06:30am 11.3 CALM 0 0 1016.5 - 4.2 - - 10 - - - -
28/06:00am 11.0 CALM 0 0 1016.4 - 4.2 Recent precip. - 10 - - - -
28/05:30am 12.1 NW 4 5 1016.2 - 4.0 - - 10 - - - -
28/05:00am 12.4 NW 5 6 1016.2 - 4.0 - Partly cloudy 10 - - - -
28/04:30am 13.0 WNW 6 7 1016.2 - 4.0 - Partly cloudy 10 - - - -
28/04:17am 13.6 NW 7 11 1016.1 - 4.0 - Partly cloudy 10 - - - -
28/04:00am 14.4 W 8 11 1016.2 - 3.2 - Partly cloudy 5 - - - -
28/03:30am 14.5 NW 8 13 1016.1 - 2.0 - Partly cloudy 10 - - - -
28/03:00am 14.7 NW 10 14 1016.2 - 2.0 - Mostly clear 10 - - - -
28/02:30am 14.7 NW 10 13 1016.5 - 2.0 - Partly cloudy 10 - - - -
28/02:00am 14.8 NW 9 11 1016.5 - 2.0 - - 10 - - - -
28/01:30am 14.6 NW 9 12 1016.9 - 2.0 - Partly cloudy 10 - - - -
28/01:00am 14.4 NNW 7 10 1016.9 - 1.8 - Partly cloudy 10 - - - -
28/12:30am 14.6 NNW 7 9 1016.7 - 1.8 - Partly cloudy 10 - - - -
28/12:00am 14.7 NW 10 13 1016.9 - 1.8 - - 10 - - - -
 
Date/Time
CST
Temp

°C
Wind Pressure Rain
since 9am
mm
Weather Cloud Vis
km
Sea
Height
m
Swell
Dir
 
Speed
knots
Gust
knots
hPa Trend Height
m
Period
s
Dir
27/11:46pm 14.9 NNW 9 16 1017.0 - 1.8 - Partly cloudy 10 - - - -
27/11:30pm 14.7 NNW 7 11 1017.1 - 1.8 - Partly cloudy 10 - - - -
27/11:00pm 14.8 NNW 7 11 1017.3 - 1.8 - Partly cloudy 10 - - - -
27/10:35pm 14.7 NNW 8 11 1017.4 - 1.8 - Partly cloudy 10 - - - -
27/10:30pm 14.8 NNW 8 12 1017.4 - 1.8 - Partly cloudy 10 - - - -
27/10:00pm 14.3 N 5 6 1017.5 - 1.8 - Partly cloudy 10 - - - -
27/09:30pm 14.4 N 5 7 1017.6 - 1.8 - Partly cloudy 10 - - - -
27/09:00pm 14.7 N 5 6 1017.6 - 1.8 Recent precip. Partly cloudy 10 - - - -
27/08:30pm 15.1 NNW 4 7 1017.8 - 1.8 - Partly cloudy 10 - - - -
27/08:00pm 15.0 NW 4 5 1017.9 - 1.4 - Partly cloudy 10 - - - -
27/07:30pm 15.1 NW 5 7 1017.7 - 1.4 - Partly cloudy 10 - - - -
27/07:00pm 15.2 NNW 5 6 1017.7 - 1.4 - Partly cloudy 10 - - - -
27/06:55pm 15.2 NW 5 6 1017.6 - 1.4 - Partly cloudy 10 - - - -
27/06:30pm 15.3 NNW 4 7 1017.7 - 1.2 - Partly cloudy 10 - - - -
27/06:21pm 15.3 NNW 5 6 1017.7 - 0.8 - Partly cloudy 10 - - - -

Other Formats:

Comma delimited format used in spreadsheet applications
http://www.bom.gov.au/fwo/IDS60701/IDS60701.95807.axf

JavaScript Object Notation format (JSON) in row-major order
http://www.bom.gov.au/fwo/IDS60701/IDS60701.95807.json